Time;durP1;ratioP1;P1;durP2;ratioP2;P2;SDS_P1;SDS_P2;PMS_P1;PMS_P2;Temp;Humidity;BMP_temperature;BMP_pressure;BME280_temperature;BME280_humidity;BME280_pressure;Samples;Min_cycle;Max_cycle;Signal;HPM_P1;HPM_P2
2021/06/23 00:02:12;;;;;;;;;;;21.90;70.90;;;;;;5034319;28;1387;-64
2021/06/23 00:04:37;;;;;;;;;;;21.90;70.90;;;;;;5033863;28;2019;-64
2021/06/23 00:07:03;;;;;;;;;;;21.90;70.90;;;;;;5034454;28;1111;-65
2021/06/23 00:09:28;;;;;;;;;;;21.90;70.90;;;;;;5034637;28;1134;-64
2021/06/23 00:11:56;;;;;;;;;;;21.90;70.90;;;;;;5034677;28;1278;-64
2021/06/23 00:14:22;;;;;;;;;;;21.90;70.90;;;;;;5033988;28;1091;-65
2021/06/23 00:16:48;;;;;;;;;;;21.90;70.90;;;;;;5034483;28;1072;-65
2021/06/23 00:19:14;;;;;;;;;;;21.90;71.00;;;;;;5032588;28;1177;-64
2021/06/23 00:21:39;;;;;;;;;;;21.90;70.90;;;;;;5034237;28;1270;-64
2021/06/23 00:24:05;;;;;;;;;;;21.90;70.90;;;;;;5033438;28;1072;-65
2021/06/23 00:26:33;;;;;;;;;;;21.90;70.90;;;;;;5034511;28;1910;-64
2021/06/23 00:28:59;;;;;;;;;;;21.90;70.90;;;;;;5034464;28;1127;-64
2021/06/23 00:31:25;;;;;;;;;;;21.90;70.90;;;;;;5034030;28;1091;-64
2021/06/23 00:33:51;;;;;;;;;;;21.90;70.90;;;;;;5033282;28;1204;-65
2021/06/23 00:36:16;;;;;;;;;;;21.90;70.90;;;;;;5033906;28;1139;-65
2021/06/23 00:38:42;;;;;;;;;;;21.90;71.70;;;;;;5033892;28;1067;-64
2021/06/23 00:41:07;;;;;;;;;;;21.90;71.00;;;;;;5032235;28;1136;-65
2021/06/23 00:43:32;;;;;;;;;;;21.90;71.00;;;;;;5029792;28;1307;-64
2021/06/23 00:45:58;;;;;;;;;;;21.90;71.00;;;;;;5030807;28;1968;-64
2021/06/23 00:48:29;;;;;;;;;;;21.90;71.00;;;;;;5032727;28;1144;-64
2021/06/23 00:50:59;;;;;;;;;;;21.90;71.00;;;;;;5033650;28;1250;-64
2021/06/23 00:53:24;;;;;;;;;;;21.90;71.00;;;;;;5033378;28;1290;-64
2021/06/23 00:55:50;;;;;;;;;;;21.90;71.00;;;;;;5032590;28;1071;-64
2021/06/23 00:58:16;;;;;;;;;;;21.90;71.00;;;;;;5033296;28;1123;-64
2021/06/23 01:00:41;;;;;;;;;;;21.90;70.90;;;;;;5034361;28;1091;-64
2021/06/23 01:03:07;;;;;;;;;;;21.90;71.00;;;;;;5032516;28;1307;-64
2021/06/23 01:05:33;;;;;;;;;;;21.90;71.00;;;;;;5033324;28;1969;-64
2021/06/23 01:07:58;;;;;;;;;;;21.90;71.00;;;;;;5033761;28;1056;-64
2021/06/23 01:10:25;;;;;;;;;;;21.90;71.00;;;;;;5031997;28;1091;-64
2021/06/23 01:13:09;;;;;;;;;;;21.90;71.00;;;;;;5031829;28;1303;-64
2021/06/23 01:15:34;;;;;;;;;;;21.90;71.00;;;;;;5033866;28;1067;-64
2021/06/23 01:18:00;;;;;;;;;;;21.90;71.80;;;;;;5033138;28;1088;-64
2021/06/23 01:20:26;;;;;;;;;;;21.90;71.00;;;;;;5031638;28;1180;-64
2021/06/23 01:22:52;;;;;;;;;;;21.90;71.00;;;;;;5030148;28;1361;-65
2021/06/23 01:25:18;;;;;;;;;;;21.90;71.00;;;;;;5021158;28;1906;-64
2021/06/23 01:27:45;;;;;;;;;;;21.90;71.00;;;;;;5024060;28;1284;-64
2021/06/23 01:30:11;;;;;;;;;;;21.90;71.00;;;;;;5024422;28;1296;-65
2021/06/23 01:32:37;;;;;;;;;;;21.90;71.00;;;;;;5024477;28;1316;-64
2021/06/23 01:35:02;;;;;;;;;;;21.90;71.00;;;;;;5028029;28;1245;-66
2021/06/23 01:37:29;;;;;;;;;;;21.90;71.00;;;;;;5024715;28;1394;-65
2021/06/23 01:39:55;;;;;;;;;;;21.80;71.00;;;;;;5022685;28;1515;-64
2021/06/23 01:42:20;;;;;;;;;;;21.90;71.10;;;;;;5023581;28;1379;-64
2021/06/23 01:44:46;;;;;;;;;;;21.90;71.10;;;;;;5024268;28;1953;-65
2021/06/23 01:47:11;;;;;;;;;;;21.90;71.00;;;;;;5025708;28;1196;-64
2021/06/23 01:49:37;;;;;;;;;;;21.90;71.10;;;;;;5025276;28;1199;-64
2021/06/23 01:52:02;;;;;;;;;;;21.90;71.10;;;;;;5029186;28;1416;-65
2021/06/23 01:54:28;;;;;;;;;;;21.90;71.10;;;;;;5060307;23;3546;-72
2021/06/23 01:56:53;;;;;;;;;;;21.90;71.10;;;;;;5067608;28;1417;-72
2021/06/23 01:59:18;;;;;;;;;;;21.90;71.10;;;;;;5051963;28;1498;-72
2021/06/23 02:02:07;;;;;;;;;;;21.90;71.10;;;;;;5039595;28;1298;-72
2021/06/23 02:04:52;;;;;;;;;;;21.80;71.10;;;;;;5050636;28;1460;-72
2021/06/23 02:07:26;;;;;;;;;;;21.90;71.20;;;;;;5051435;28;1239;-71
2021/06/23 02:09:58;;;;;;;;;;;21.80;71.10;;;;;;5051278;28;1431;-72
2021/06/23 02:12:24;;;;;;;;;;;21.80;71.10;;;;;;5052790;28;1763;-72
2021/06/23 02:14:59;;;;;;;;;;;21.80;71.10;;;;;;5049403;28;1368;-72
2021/06/23 02:17:24;;;;;;;;;;;21.80;71.10;;;;;;5031350;28;1486;-73
2021/06/23 02:19:50;;;;;;;;;;;21.80;71.10;;;;;;5036083;28;1357;-72
2021/06/23 02:22:30;;;;;;;;;;;21.80;71.10;;;;;;5034659;28;1371;-72
2021/06/23 02:24:56;;;;;;;;;;;21.80;71.20;;;;;;5033433;28;1977;-72
2021/06/23 02:27:22;;;;;;;;;;;21.80;71.20;;;;;;5039394;28;1463;-72
2021/06/23 02:29:48;;;;;;;;;;;21.80;71.20;;;;;;5031010;28;1142;-73
2021/06/23 02:32:14;;;;;;;;;;;21.80;71.10;;;;;;5031376;28;1253;-72
2021/06/23 02:34:40;;;;;;;;;;;21.80;71.20;;;;;;5030091;28;1530;-72
2021/06/23 02:37:06;;;;;;;;;;;21.80;71.20;;;;;;5030774;28;1364;-71
2021/06/23 02:39:31;;;;;;;;;;;21.80;71.20;;;;;;5033340;28;1716;-71
2021/06/23 02:41:57;;;;;;;;;;;21.80;71.20;;;;;;5051799;28;1193;-71
2021/06/23 02:44:22;;;;;;;;;;;21.80;71.20;;;;;;5050318;28;1672;-71
2021/06/23 02:46:48;;;;;;;;;;;21.80;71.20;;;;;;5034516;28;1894;-71
2021/06/23 02:49:13;;;;;;;;;;;21.80;71.20;;;;;;5050847;28;1698;-71
2021/06/23 02:51:40;;;;;;;;;;;21.80;71.30;;;;;;5050996;28;1695;-71
2021/06/23 02:54:06;;;;;;;;;;;21.80;72.00;;;;;;5050798;28;1418;-71
2021/06/23 02:56:31;;;;;;;;;;;21.80;71.20;;;;;;5051263;28;1520;-71
2021/06/23 02:58:57;;;;;;;;;;;21.80;71.20;;;;;;5050305;28;1578;-71
2021/06/23 03:01:23;;;;;;;;;;;21.80;71.20;;;;;;5050724;28;1506;-71
2021/06/23 03:03:49;;;;;;;;;;;21.80;71.20;;;;;;5054791;28;1386;-70
2021/06/23 03:06:15;;;;;;;;;;;21.80;71.20;;;;;;5056060;28;1910;-70
2021/06/23 03:08:40;;;;;;;;;;;21.80;71.20;;;;;;5055134;28;1751;-72
2021/06/23 03:11:06;;;;;;;;;;;21.80;71.20;;;;;;5056228;28;1368;-72
2021/06/23 03:13:31;;;;;;;;;;;21.80;71.20;;;;;;5053796;28;1357;-72
2021/06/23 03:15:57;;;;;;;;;;;21.80;71.20;;;;;;5037921;28;1427;-73
2021/06/23 03:18:22;;;;;;;;;;;21.80;71.30;;;;;;5054388;28;1287;-72
2021/06/23 03:20:47;;;;;;;;;;;21.80;71.20;;;;;;5054563;28;1425;-73
2021/06/23 03:23:13;;;;;;;;;;;21.80;71.30;;;;;;5053205;28;1402;-73
2021/06/23 03:25:38;;;;;;;;;;;21.80;71.30;;;;;;5044606;28;1957;-72
2021/06/23 03:28:04;;;;;;;;;;;21.80;71.30;;;;;;5051615;28;1447;-74
2021/06/23 03:30:29;;;;;;;;;;;21.80;71.30;;;;;;5054668;28;1363;-72
2021/06/23 03:32:55;;;;;;;;;;;21.80;71.30;;;;;;5039427;28;1728;-72
2021/06/23 03:35:21;;;;;;;;;;;21.80;71.30;;;;;;5055598;28;1380;-72
2021/06/23 03:37:46;;;;;;;;;;;21.80;71.30;;;;;;5037422;28;1394;-72
2021/06/23 03:40:12;;;;;;;;;;;21.80;71.30;;;;;;5042378;28;1403;-72
2021/06/23 03:42:37;;;;;;;;;;;21.80;71.40;;;;;;5014050;28;1403;-72
2021/06/23 03:45:03;;;;;;;;;;;21.80;71.30;;;;;;5037188;28;1965;-72
2021/06/23 03:47:31;;;;;;;;;;;21.80;71.30;;;;;;5049013;28;1672;-71
2021/06/23 03:49:57;;;;;;;;;;;21.80;71.30;;;;;;5055385;28;1660;-71
2021/06/23 03:52:22;;;;;;;;;;;21.80;71.30;;;;;;5053081;28;1676;-73
2021/06/23 03:54:48;;;;;;;;;;;21.80;71.30;;;;;;5054325;28;1474;-72
2021/06/23 03:57:13;;;;;;;;;;;21.80;71.30;;;;;;5053630;28;1350;-71
2021/06/23 03:59:39;;;;;;;;;;;21.80;71.40;;;;;;5054921;28;1651;-72
2021/06/23 04:02:04;;;;;;;;;;;21.80;71.30;;;;;;5054766;28;1356;-73
2021/06/23 04:04:30;;;;;;;;;;;21.70;71.30;;;;;;5054303;28;1423;-73
2021/06/23 04:06:55;;;;;;;;;;;21.80;71.40;;;;;;5053679;28;1944;-73
2021/06/23 04:09:20;;;;;;;;;;;21.80;71.30;;;;;;5053601;28;1306;-73
2021/06/23 04:11:46;;;;;;;;;;;21.80;71.30;;;;;;5053461;28;1706;-73
2021/06/23 04:14:11;;;;;;;;;;;21.70;71.40;;;;;;5053465;28;1450;-73
2021/06/23 04:16:37;;;;;;;;;;;21.70;71.40;;;;;;5053365;28;1686;-74
2021/06/23 04:19:02;;;;;;;;;;;21.80;71.40;;;;;;5036549;28;1646;-73
2021/06/23 04:21:27;;;;;;;;;;;21.70;71.30;;;;;;5054688;28;1446;-73
2021/06/23 04:23:53;;;;;;;;;;;21.80;71.30;;;;;;5053973;28;1598;-73
2021/06/23 04:26:18;;;;;;;;;;;21.80;71.40;;;;;;5053962;28;1898;-73
2021/06/23 04:28:44;;;;;;;;;;;21.70;71.30;;;;;;5054328;28;1761;-73
2021/06/23 04:31:09;;;;;;;;;;;21.70;71.30;;;;;;5051799;28;1481;-73
2021/06/23 04:33:35;;;;;;;;;;;21.80;71.40;;;;;;5032126;28;1380;-73
2021/06/23 04:36:00;;;;;;;;;;;21.70;71.40;;;;;;5033461;28;1698;-73
2021/06/23 04:38:25;;;;;;;;;;;21.70;71.40;;;;;;5032709;28;1193;-73
2021/06/23 04:40:51;;;;;;;;;;;21.70;71.40;;;;;;5047345;28;1521;-73
2021/06/23 04:43:16;;;;;;;;;;;21.70;71.40;;;;;;5053415;28;1366;-73
2021/06/23 04:45:42;;;;;;;;;;;21.70;71.40;;;;;;5053937;28;1957;-74
2021/06/23 04:48:07;;;;;;;;;;;21.70;71.40;;;;;;5053641;28;1372;-73
2021/06/23 04:50:33;;;;;;;;;;;21.70;71.40;;;;;;5054237;28;1409;-72
2021/06/23 04:52:58;;;;;;;;;;;21.70;71.40;;;;;;5052126;28;1606;-72
2021/06/23 04:55:24;;;;;;;;;;;21.70;71.40;;;;;;5053889;28;1386;-72
2021/06/23 04:57:49;;;;;;;;;;;21.70;71.40;;;;;;5053699;28;1200;-71
2021/06/23 05:00:15;;;;;;;;;;;21.70;71.40;;;;;;5053667;28;1399;-72
2021/06/23 05:02:40;;;;;;;;;;;21.70;71.40;;;;;;5053414;28;1607;-72
2021/06/23 05:05:06;;;;;;;;;;;21.70;71.40;;;;;;5053238;28;1963;-72
2021/06/23 05:07:31;;;;;;;;;;;21.70;71.40;;;;;;5052398;28;1686;-71
2021/06/23 05:09:57;;;;;;;;;;;21.70;71.40;;;;;;5053167;28;1683;-71
2021/06/23 05:12:26;;;;;;;;;;;21.70;71.40;;;;;;5051841;28;1439;-71
2021/06/23 05:14:51;;;;;;;;;;;21.70;71.40;;;;;;5051417;28;1463;-71
2021/06/23 05:17:17;;;;;;;;;;;21.70;71.40;;;;;;5053133;28;1248;-71
2021/06/23 05:19:42;;;;;;;;;;;21.70;71.40;;;;;;5053337;28;1679;-71
2021/06/23 05:22:10;;;;;;;;;;;21.70;71.40;;;;;;5053378;28;1173;-71
2021/06/23 05:24:37;;;;;;;;;;;21.70;71.40;;;;;;5052101;28;1653;-73
2021/06/23 05:27:02;;;;;;;;;;;21.70;71.40;;;;;;5051756;28;1901;-74
2021/06/23 05:29:28;;;;;;;;;;;21.70;71.40;;;;;;5052965;28;1402;-74
2021/06/23 05:31:53;;;;;;;;;;;21.70;71.40;;;;;;5044183;28;1343;-71
2021/06/23 05:34:18;;;;;;;;;;;21.70;71.50;;;;;;5031174;28;1702;-71
2021/06/23 05:36:44;;;;;;;;;;;21.70;71.40;;;;;;5033425;28;1678;-71
2021/06/23 05:39:09;;;;;;;;;;;21.70;71.40;;;;;;5032104;28;1653;-73
2021/06/23 05:41:35;;;;;;;;;;;21.70;71.50;;;;;;5052389;28;1173;-73
2021/06/23 05:44:00;;;;;;;;;;;21.70;71.50;;;;;;5044079;28;1772;-70
2021/06/23 05:46:26;;;;;;;;;;;21.70;71.50;;;;;;5020819;28;2017;-70
2021/06/23 05:48:51;;;;;;;;;;;21.70;71.40;;;;;;5049868;28;1400;-69
2021/06/23 05:51:17;;;;;;;;;;;21.70;71.40;;;;;;5037642;28;1490;-69
2021/06/23 05:53:42;;;;;;;;;;;21.70;71.50;;;;;;5030035;28;1580;-69
2021/06/23 05:56:08;;;;;;;;;;;21.70;72.20;;;;;;5032025;28;1056;-70
2021/06/23 05:58:33;;;;;;;;;;;21.70;71.40;;;;;;5031558;28;1216;-71
2021/06/23 06:01:00;;;;;;;;;;;21.70;71.40;;;;;;5030599;28;1643;-72
2021/06/23 06:03:25;;;;;;;;;;;21.70;71.40;;;;;;5011312;28;1372;-71
2021/06/23 06:05:51;;;;;;;;;;;21.70;71.40;;;;;;5031756;28;1907;-72
2021/06/23 06:08:16;;;;;;;;;;;21.70;71.40;;;;;;5031733;28;1160;-71
2021/06/23 06:10:41;;;;;;;;;;;21.70;71.40;;;;;;5031726;28;1349;-71
2021/06/23 06:13:07;;;;;;;;;;;21.70;71.40;;;;;;5009996;28;1414;-70
2021/06/23 06:15:32;;;;;;;;;;;21.70;71.50;;;;;;5030678;28;1412;-68
2021/06/23 06:18:02;;;;;;;;;;;21.70;71.40;;;;;;5030285;28;1441;-71
2021/06/23 06:20:27;;;;;;;;;;;21.70;71.50;;;;;;5031577;28;1381;-66
2021/06/23 06:22:52;;;;;;;;;;;21.70;71.40;;;;;;5030900;28;1399;-68
2021/06/23 06:25:18;;;;;;;;;;;21.70;72.20;;;;;;5030321;28;1951;-70
2021/06/23 06:27:43;;;;;;;;;;;21.70;71.50;;;;;;5031606;28;1389;-68
2021/06/23 06:30:09;;;;;;;;;;;21.70;71.50;;;;;;5051021;28;1154;-68
2021/06/23 06:32:34;;;;;;;;;;;21.70;71.50;;;;;;5036537;28;1896;-69
2021/06/23 06:35:00;;;;;;;;;;;21.70;71.50;;;;;;5030856;28;1208;-70
2021/06/23 06:37:25;;;;;;;;;;;21.70;71.60;;;;;;5031505;28;1387;-70
2021/06/23 06:39:50;;;;;;;;;;;21.70;71.50;;;;;;5018653;28;1442;-70
2021/06/23 06:42:16;;;;;;;;;;;21.70;71.50;;;;;;5051209;28;1230;-69
2021/06/23 06:44:41;;;;;;;;;;;21.70;71.50;;;;;;5050760;28;1424;-76
2021/06/23 06:47:07;;;;;;;;;;;21.70;71.50;;;;;;5037082;28;1965;-75
2021/06/23 06:49:32;;;;;;;;;;;21.70;71.50;;;;;;5032331;28;954;-74
2021/06/23 06:51:58;;;;;;;;;;;21.70;71.50;;;;;;5030399;28;1404;-74
2021/06/23 06:54:27;;;;;;;;;;;21.70;71.40;;;;;;5030193;28;1305;-74
2021/06/23 06:56:52;;;;;;;;;;;21.70;71.40;;;;;;5031554;28;1429;-74
2021/06/23 06:59:20;;;;;;;;;;;21.70;71.50;;;;;;5047279;28;1128;-74
2021/06/23 07:01:46;;;;;;;;;;;21.70;71.50;;;;;;5031939;28;1178;-73
2021/06/23 07:04:12;;;;;;;;;;;21.70;71.50;;;;;;5031475;28;1257;-73
2021/06/23 07:06:37;;;;;;;;;;;21.70;71.50;;;;;;5031657;28;1906;-73
2021/06/23 07:09:03;;;;;;;;;;;21.70;71.50;;;;;;5031542;28;1051;-73
2021/06/23 07:11:28;;;;;;;;;;;21.70;71.40;;;;;;5014442;28;1629;-73
2021/06/23 07:13:54;;;;;;;;;;;21.70;71.40;;;;;;5031444;28;1443;-72
2021/06/23 07:16:19;;;;;;;;;;;21.70;71.40;;;;;;5031772;28;1620;-73
2021/06/23 07:18:45;;;;;;;;;;;21.70;71.40;;;;;;5030034;28;1500;-71
2021/06/23 07:21:17;;;;;;;;;;;21.70;71.50;;;;;;5030814;28;1401;-71
2021/06/23 07:23:42;;;;;;;;;;;21.70;71.40;;;;;;5031183;28;1255;-71
2021/06/23 07:26:08;;;;;;;;;;;21.70;71.40;;;;;;5030645;28;1894;-74
2021/06/23 07:28:53;;;;;;;;;;;21.70;71.40;;;;;;5031466;28;1681;-74
2021/06/23 07:31:28;;;;;;;;;;;21.70;71.40;;;;;;5031701;28;1611;-74
2021/06/23 07:34:12;;;;;;;;;;;21.70;71.40;;;;;;5029798;28;1305;-73
2021/06/23 07:36:41;;;;;;;;;;;21.70;71.40;;;;;;5032080;28;1316;-72
2021/06/23 07:39:08;;;;;;;;;;;21.70;71.40;;;;;;5030265;28;1309;-73
2021/06/23 07:41:34;;;;;;;;;;;21.70;71.40;;;;;;5050812;28;1363;-72
2021/06/23 07:44:00;;;;;;;;;;;21.70;71.40;;;;;;5050907;28;1684;-73
2021/06/23 07:46:26;;;;;;;;;;;21.70;71.40;;;;;;5036974;28;1917;-73
2021/06/23 07:48:54;;;;;;;;;;;21.70;71.40;;;;;;5032132;28;1432;-72
2021/06/23 07:51:27;;;;;;;;;;;21.70;71.40;;;;;;5035163;28;1189;-72
2021/06/23 07:54:09;;;;;;;;;;;21.70;71.40;;;;;;5049325;22;2103;-66
2021/06/23 08:10:11;;;;;;;;;;;21.70;71.50;;;;;;5051115;28;1494;-64
2021/06/23 08:12:44;;;;;;;;;;;21.70;71.40;;;;;;5054540;28;1383;-65
2021/06/23 08:15:10;;;;;;;;;;;21.70;71.40;;;;;;5052524;28;1899;-65
2021/06/23 08:17:36;;;;;;;;;;;21.70;71.40;;;;;;5053729;28;1683;-64
2021/06/23 08:20:01;;;;;;;;;;;21.70;71.50;;;;;;5054274;28;1650;-64
2021/06/23 08:22:27;;;;;;;;;;;21.70;71.40;;;;;;5053230;28;1348;-65
2021/06/23 08:24:52;;;;;;;;;;;21.70;71.40;;;;;;5055776;28;1906;-65
2021/06/23 08:27:18;;;;;;;;;;;21.70;71.40;;;;;;5066718;28;1526;-64
2021/06/23 08:29:43;;;;;;;;;;;21.70;72.10;;;;;;5064274;28;1321;-64
2021/06/23 08:32:08;;;;;;;;;;;21.70;71.40;;;;;;5066025;28;1536;-67
2021/06/23 08:34:34;;;;;;;;;;;21.70;71.40;;;;;;5063819;28;1714;-66
2021/06/23 08:37:00;;;;;;;;;;;21.70;71.40;;;;;;5053149;28;1424;-67
2021/06/23 08:39:25;;;;;;;;;;;21.70;71.40;;;;;;5060801;28;1360;-67
2021/06/23 08:41:50;;;;;;;;;;;21.70;71.40;;;;;;5059390;28;1155;-67
2021/06/23 08:44:16;;;;;;;;;;;21.70;71.40;;;;;;5053497;28;1436;-64
2021/06/23 08:46:41;;;;;;;;;;;21.70;71.40;;;;;;5053796;28;1879;-65
2021/06/23 08:49:08;;;;;;;;;;;21.70;71.40;;;;;;5053919;28;1446;-64
2021/06/23 08:51:36;;;;;;;;;;;21.70;71.40;;;;;;5053833;28;1405;-64
2021/06/23 08:54:02;;;;;;;;;;;21.70;71.40;;;;;;5052866;28;1448;-65
2021/06/23 08:56:27;;;;;;;;;;;21.70;71.40;;;;;;5054340;28;1630;-65
2021/06/23 08:58:53;;;;;;;;;;;21.70;71.40;;;;;;5054177;28;1637;-64
2021/06/23 09:01:18;;;;;;;;;;;21.70;71.40;;;;;;5052848;28;1604;-64
2021/06/23 09:04:02;;;;;;;;;;;21.70;71.40;;;;;;5052666;28;1713;-66
2021/06/23 09:06:46;;;;;;;;;;;21.70;71.40;;;;;;5053445;28;1989;-64
2021/06/23 09:09:15;;;;;;;;;;;21.70;71.40;;;;;;5053677;28;1322;-64
2021/06/23 09:11:41;;;;;;;;;;;21.70;71.40;;;;;;5053856;28;1552;-64
2021/06/23 09:14:13;;;;;;;;;;;21.70;71.40;;;;;;5052416;28;1668;-65
2021/06/23 09:17:04;;;;;;;;;;;21.70;71.50;;;;;;5052363;28;1633;-64
2021/06/23 09:19:29;;;;;;;;;;;21.70;71.40;;;;;;5048329;28;1653;-66
2021/06/23 09:21:55;;;;;;;;;;;21.70;71.40;;;;;;5052847;28;1379;-65
2021/06/23 09:24:20;;;;;;;;;;;21.70;71.20;;;;;;5052374;28;1241;-64
2021/06/23 09:26:46;;;;;;;;;;;21.70;71.20;;;;;;5052975;28;1945;-65
2021/06/23 09:29:15;;;;;;;;;;;21.70;71.10;;;;;;5053195;28;1391;-64
2021/06/23 09:31:54;;;;;;;;;;;21.70;71.00;;;;;;5052750;28;1619;-65
2021/06/23 09:34:24;;;;;;;;;;;21.70;71.10;;;;;;5051857;28;1663;-64
2021/06/23 09:36:49;;;;;;;;;;;21.70;71.20;;;;;;5053299;28;1368;-65
2021/06/23 09:39:19;;;;;;;;;;;21.70;71.30;;;;;;5049443;28;1359;-64
2021/06/23 09:41:45;;;;;;;;;;;21.70;71.30;;;;;;5053113;28;1612;-64
2021/06/23 09:44:10;;;;;;;;;;;21.70;71.10;;;;;;5052450;28;1686;-64
2021/06/23 09:46:40;;;;;;;;;;;21.70;70.90;;;;;;5051501;28;1902;-64
2021/06/23 09:49:05;;;;;;;;;;;21.70;70.60;;;;;;5052810;28;1622;-64
2021/06/23 09:51:37;;;;;;;;;;;21.70;70.60;;;;;;5052668;28;1396;-65
2021/06/23 09:54:02;;;;;;;;;;;21.70;70.60;;;;;;5051375;28;1702;-64
2021/06/23 09:56:32;;;;;;;;;;;21.70;70.70;;;;;;5053333;28;1343;-66
2021/06/23 09:58:58;;;;;;;;;;;21.70;70.70;;;;;;5051617;28;1728;-64
2021/06/23 10:01:24;;;;;;;;;;;21.70;70.60;;;;;;5052990;28;1707;-65
2021/06/23 10:03:54;;;;;;;;;;;21.70;70.50;;;;;;5051867;28;2043;-65
2021/06/23 10:06:20;;;;;;;;;;;21.70;70.40;;;;;;5063813;28;1965;-65
2021/06/23 10:08:45;;;;;;;;;;;21.70;70.20;;;;;;5062679;28;1343;-65
2021/06/23 10:11:11;;;;;;;;;;;21.70;69.70;;;;;;5058170;28;1340;-66
2021/06/23 10:13:36;;;;;;;;;;;21.70;69.90;;;;;;5064075;28;1738;-67
2021/06/23 10:16:02;;;;;;;;;;;21.70;70.00;;;;;;5063219;28;1579;-66
2021/06/23 10:18:28;;;;;;;;;;;21.70;70.10;;;;;;5052514;28;1397;-66
2021/06/23 10:20:54;;;;;;;;;;;21.70;70.30;;;;;;5050973;28;1379;-67
2021/06/23 10:23:19;;;;;;;;;;;21.70;70.50;;;;;;5051844;28;1359;-66
2021/06/23 10:25:45;;;;;;;;;;;21.70;70.60;;;;;;5051254;28;1882;-68
2021/06/23 10:28:10;;;;;;;;;;;21.70;70.60;;;;;;5050849;28;1543;-68
2021/06/23 10:30:36;;;;;;;;;;;21.70;70.60;;;;;;5052417;28;1175;-68
2021/06/23 10:33:01;;;;;;;;;;;21.70;70.60;;;;;;5051444;28;1577;-66
2021/06/23 10:35:27;;;;;;;;;;;21.70;70.70;;;;;;5051868;28;1436;-68
2021/06/23 10:37:52;;;;;;;;;;;21.70;70.70;;;;;;5052129;28;1666;-68
2021/06/23 10:40:18;;;;;;;;;;;21.70;70.80;;;;;;5049557;28;1470;-67
2021/06/23 10:42:43;;;;;;;;;;;21.70;70.80;;;;;;5051239;28;1627;-68
2021/06/23 10:45:09;;;;;;;;;;;21.70;70.90;;;;;;5051268;28;1898;-68
2021/06/23 10:47:38;;;;;;;;;;;21.70;70.90;;;;;;5051927;28;1171;-67
2021/06/23 10:50:07;;;;;;;;;;;21.70;70.90;;;;;;5052125;28;1411;-68
2021/06/23 10:52:36;;;;;;;;;;;21.70;71.00;;;;;;5052268;28;1166;-68
2021/06/23 10:55:21;;;;;;;;;;;21.70;70.90;;;;;;5051320;28;1666;-68
2021/06/23 10:57:48;;;;;;;;;;;21.70;70.90;;;;;;5037411;28;1585;-68
2021/06/23 11:00:17;;;;;;;;;;;21.70;70.90;;;;;;5050713;28;1190;-68
2021/06/23 11:02:42;;;;;;;;;;;21.70;70.90;;;;;;5051976;28;1405;-68
2021/06/23 11:05:14;;;;;;;;;;;21.70;71.00;;;;;;5044988;28;1902;-65
2021/06/23 11:07:41;;;;;;;;;;;21.70;71.00;;;;;;5043268;28;1282;-65
2021/06/23 11:10:12;;;;;;;;;;;21.70;71.00;;;;;;5045847;28;1402;-67
2021/06/23 11:12:48;;;;;;;;;;;21.70;71.10;;;;;;5042389;28;1262;-66
2021/06/23 11:15:16;;;;;;;;;;;21.70;71.20;;;;;;5043168;28;1672;-64
2021/06/23 11:17:42;;;;;;;;;;;21.70;71.10;;;;;;5042813;28;1234;-65
2021/06/23 11:20:19;;;;;;;;;;;21.70;71.10;;;;;;5044624;28;1050;-67
2021/06/23 11:22:48;;;;;;;;;;;21.70;71.10;;;;;;5042883;28;1289;-66
2021/06/23 11:25:26;;;;;;;;;;;21.70;71.20;;;;;;5050288;28;1894;-64
2021/06/23 11:28:07;;;;;;;;;;;21.70;71.20;;;;;;5046028;28;1527;-65
2021/06/23 11:30:42;;;;;;;;;;;21.70;71.20;;;;;;5049536;28;1382;-66
2021/06/23 11:33:26;;;;;;;;;;;21.70;71.10;;;;;;5049344;28;1471;-67
2021/06/23 11:35:51;;;;;;;;;;;21.70;71.10;;;;;;5054972;28;1364;-65
2021/06/23 11:38:17;;;;;;;;;;;21.70;71.90;;;;;;5055181;28;1663;-65
2021/06/23 11:40:42;;;;;;;;;;;21.70;71.20;;;;;;5055694;28;1423;-66
2021/06/23 11:43:07;;;;;;;;;;;21.70;71.20;;;;;;5054733;28;1582;-65
2021/06/23 11:45:33;;;;;;;;;;;21.70;71.10;;;;;;5048986;28;1960;-66
2021/06/23 11:47:58;;;;;;;;;;;21.70;71.20;;;;;;5045724;28;1351;-67
2021/06/23 11:50:24;;;;;;;;;;;21.70;71.20;;;;;;5045899;28;1644;-65
2021/06/23 11:52:49;;;;;;;;;;;21.70;71.20;;;;;;5046799;28;1339;-67
2021/06/23 11:55:23;;;;;;;;;;;21.70;71.20;;;;;;5043519;28;1379;-66
2021/06/23 11:57:49;;;;;;;;;;;21.70;71.20;;;;;;5045028;28;1344;-66
2021/06/23 12:00:15;;;;;;;;;;;21.60;71.10;;;;;;5046229;28;1358;-65
2021/06/23 12:02:40;;;;;;;;;;;21.70;71.20;;;;;;5045852;28;1308;-66
2021/06/23 12:05:06;;;;;;;;;;;21.70;71.20;;;;;;5043420;28;1963;-66
2021/06/23 12:07:31;;;;;;;;;;;21.70;71.20;;;;;;5046731;28;1531;-65
2021/06/23 12:09:57;;;;;;;;;;;21.70;71.20;;;;;;5046818;28;1324;-67
2021/06/23 12:12:22;;;;;;;;;;;21.70;71.20;;;;;;5048347;28;1252;-65
2021/06/23 12:14:48;;;;;;;;;;;21.70;71.10;;;;;;5047261;28;1362;-65
2021/06/23 12:17:13;;;;;;;;;;;21.70;71.20;;;;;;5050377;28;1528;-66
2021/06/23 12:19:40;;;;;;;;;;;21.70;71.20;;;;;;5047082;28;1395;-65
2021/06/23 12:22:07;;;;;;;;;;;21.70;71.20;;;;;;5054296;28;1039;-65
2021/06/23 12:24:32;;;;;;;;;;;21.70;71.20;;;;;;5053750;28;1288;-64
2021/06/23 12:26:58;;;;;;;;;;;21.70;71.20;;;;;;5054548;28;2027;-65
2021/06/23 12:29:23;;;;;;;;;;;21.70;71.20;;;;;;5054432;28;1193;-65
2021/06/23 12:31:49;;;;;;;;;;;21.70;71.30;;;;;;5054301;28;1276;-65
2021/06/23 12:34:14;;;;;;;;;;;21.70;71.30;;;;;;5051158;28;1354;-65
2021/06/23 12:36:40;;;;;;;;;;;21.70;71.30;;;;;;5054336;28;1117;-65
2021/06/23 12:39:05;;;;;;;;;;;21.70;71.20;;;;;;5051429;28;1166;-64
2021/06/23 12:41:31;;;;;;;;;;;21.70;71.30;;;;;;5054608;28;1074;-65
2021/06/23 12:43:56;;;;;;;;;;;21.70;71.30;;;;;;5052852;28;1296;-65
2021/06/23 12:46:22;;;;;;;;;;;21.70;71.30;;;;;;5053661;28;1910;-66
2021/06/23 12:48:47;;;;;;;;;;;21.70;71.30;;;;;;5054209;28;1044;-64
2021/06/23 12:51:12;;;;;;;;;;;21.70;71.30;;;;;;5054160;28;1170;-65
2021/06/23 12:53:38;;;;;;;;;;;21.60;71.20;;;;;;5053108;28;1261;-65
2021/06/23 12:56:04;;;;;;;;;;;21.70;71.30;;;;;;5053897;28;1075;-64
2021/06/23 12:58:29;;;;;;;;;;;21.70;71.30;;;;;;5053557;28;1090;-65
2021/06/23 13:00:54;;;;;;;;;;;21.70;71.30;;;;;;5053892;28;1059;-65
2021/06/23 13:03:20;;;;;;;;;;;21.70;71.30;;;;;;5052813;28;1303;-64
2021/06/23 13:05:46;;;;;;;;;;;21.70;71.30;;;;;;5053376;28;1910;-64
2021/06/23 13:08:11;;;;;;;;;;;21.70;71.20;;;;;;5052846;28;1075;-65
2021/06/23 13:10:37;;;;;;;;;;;21.70;71.30;;;;;;5053645;28;1071;-64
2021/06/23 13:13:02;;;;;;;;;;;21.70;71.20;;;;;;5053082;28;1135;-65
2021/06/23 13:15:28;;;;;;;;;;;21.70;71.20;;;;;;5052727;28;1284;-65
2021/06/23 13:17:53;;;;;;;;;;;21.70;71.20;;;;;;5053155;28;1067;-66
2021/06/23 13:20:24;;;;;;;;;;;21.70;71.20;;;;;;5052856;28;1036;-65
2021/06/23 13:22:50;;;;;;;;;;;21.70;71.20;;;;;;5051676;28;1083;-68
2021/06/23 13:25:15;;;;;;;;;;;21.70;71.30;;;;;;5053467;28;1906;-65
2021/06/23 13:27:41;;;;;;;;;;;21.70;71.30;;;;;;5053020;28;1098;-65
2021/06/23 13:30:07;;;;;;;;;;;21.70;71.30;;;;;;5051598;28;2459;-65
2021/06/23 13:32:32;;;;;;;;;;;21.70;71.30;;;;;;5052823;28;1099;-65
2021/06/23 13:34:57;;;;;;;;;;;21.70;72.10;;;;;;5052224;28;1275;-65
2021/06/23 13:37:23;;;;;;;;;;;21.70;71.30;;;;;;5052828;28;1118;-65
2021/06/23 13:39:48;;;;;;;;;;;21.70;71.30;;;;;;5049177;28;1098;-65
2021/06/23 13:42:14;;;;;;;;;;;21.70;71.30;;;;;;5053074;28;1058;-65
2021/06/23 13:44:39;;;;;;;;;;;21.70;71.30;;;;;;5052069;28;1216;-65
2021/06/23 13:47:04;;;;;;;;;;;21.70;71.30;;;;;;5047891;28;3263;-65
2021/06/23 13:49:30;;;;;;;;;;;21.70;71.40;;;;;;5052888;28;1169;-65
2021/06/23 13:51:55;;;;;;;;;;;21.70;71.40;;;;;;5052472;28;1636;-65
2021/06/23 13:54:21;;;;;;;;;;;21.70;71.40;;;;;;5072892;22;3652;-71
2021/06/23 13:56:46;;;;;;;;;;;21.70;71.40;;;;;;5046554;28;930;-71
2021/06/23 13:59:12;;;;;;;;;;;21.70;71.40;;;;;;5052992;28;1802;-72
2021/06/23 14:01:37;;;;;;;;;;;21.70;71.40;;;;;;5038834;28;1617;-70
2021/06/23 14:04:03;;;;;;;;;;;21.70;71.40;;;;;;5050341;28;2125;-69
2021/06/23 14:06:28;;;;;;;;;;;21.70;71.40;;;;;;5051976;28;1981;-71
2021/06/23 14:08:54;;;;;;;;;;;21.60;71.30;;;;;;5051700;28;1153;-69
2021/06/23 14:11:19;;;;;;;;;;;21.70;71.40;;;;;;5051973;28;1158;-69
2021/06/23 14:13:44;;;;;;;;;;;21.70;71.40;;;;;;5051191;28;1427;-69
2021/06/23 14:16:10;;;;;;;;;;;21.70;71.40;;;;;;5051320;28;1447;-68
2021/06/23 14:18:36;;;;;;;;;;;21.70;71.40;;;;;;5051965;28;1342;-68
2021/06/23 14:21:01;;;;;;;;;;;21.70;71.40;;;;;;5050443;28;1656;-69
2021/06/23 14:23:26;;;;;;;;;;;21.70;71.40;;;;;;5050910;28;1170;-71
2021/06/23 14:25:52;;;;;;;;;;;21.70;71.50;;;;;;5051177;28;1965;-69
2021/06/23 14:28:18;;;;;;;;;;;21.70;71.50;;;;;;5052583;28;1173;-70
2021/06/23 14:30:44;;;;;;;;;;;21.70;71.50;;;;;;5051981;28;1722;-71
2021/06/23 14:33:09;;;;;;;;;;;21.70;71.50;;;;;;5050901;28;980;-69
2021/06/23 14:35:35;;;;;;;;;;;21.70;71.50;;;;;;5051817;28;1200;-69
2021/06/23 14:38:00;;;;;;;;;;;21.70;71.50;;;;;;5051725;28;943;-69
2021/06/23 14:40:26;;;;;;;;;;;21.70;71.50;;;;;;5051786;28;1629;-69
2021/06/23 14:42:52;;;;;;;;;;;21.70;71.50;;;;;;5050238;28;1603;-68